Isle of Mull, United Kingdom
Current Conditions -  °F | °C
As of 5:50 PM on Friday 24 Oct 2014 (Local Time) from EGPU Reporting Station
Few Clouds Few Clouds  
Wind Chill: 52°   Ceiling: Unl
Heat Index: 52°   Visibility: 6mi
Dew Point: 46°   Wind: 18mph
Humidity: 82%   Direction: 230°SW
Pressure: 29.59"   Gusts: NA
Location:  56.49°N, 5.98°W
Report Text: EGPU 241650Z AUTO 23016KT 190V260 9999 FEW024/// 11/08 Q1002
Loading
Personal Weather Stations






























Interactive Weather Map
Tropical Storm Tracking
New forecast layout! Learn more

10-Day Weather Forecast

Advertisements
Track Severe Weather on mobile